»·PEaware :: N70EU KPMD-KSBA

N70EU :: KPMD-KSBA

FLIGHT INFORMATION

Flight Status: Arrived
Operator: Privately registered:
United States
More flights under this callsign
Pilot: Ricardo M. (29263)
Aircraft: BEECH AIRCRAFT SUPER KING AIR 350
(B350)
More flights by this aircraft type
Origin: KPMD Palmdale AF Plant 42
United States
Destination: KSBA Santa Barbara Mun
United States
More flights between these airports :: More routes between these airports
Route: +PMD V12 RZS V137
File this flight plan on PilotEdge
Remarks:
Altitude:
(Current/Filed)
10,000ft
Speed:
(Current/Filed)
250kts
Departed: 04-Sep-20 07:50 PM
Arrived: 04-Sep-20 08:21 PM
Distance/Time
Traveled:
87nm/0:31
Distance/Time
To Go:
Arrived

Flight Plot

Page will automatically refresh every two minutes.

Flight plan parsing failed; only flown route is shown


Map Options




Map Legend


Flown Route
Filed Route
Departure Airport
Arrival Airport
Navaid (VOR, NDB)
Fix

Horizontal Profiles

Position Reports

Time Latitude Longitude Heading Altitude Ground
Speed
04-Sep-20 19:37 34.636374 -118.096172 187 2512ft 0kts
04-Sep-20 19:38 34.636374 -118.096172 187 2512ft 0kts
04-Sep-20 19:39 34.636374 -118.096172 187 2512ft 0kts
04-Sep-20 19:40 34.636374 -118.096172 187 2512ft 0kts
04-Sep-20 19:41 34.636374 -118.096172 187 2512ft 0kts
04-Sep-20 19:42 34.636374 -118.096172 187 2512ft 0kts
04-Sep-20 19:43 34.636374 -118.096172 187 2512ft 0kts
04-Sep-20 19:44 34.636374 -118.096172 187 2512ft 0kts
04-Sep-20 19:45 34.636374 -118.096172 187 2512ft 0kts
04-Sep-20 19:46 34.635999 -118.096264 187 2513ft 5kts
04-Sep-20 19:47 34.634430 -118.095405 86 2516ft 16kts
04-Sep-20 19:48 34.634804 -118.082942 153 2501ft 13kts
04-Sep-20 19:49 34.631808 -118.091015 261 2516ft 110kts
04-Sep-20 19:50 34.629982 -118.134994 263 4103ft 155kts
04-Sep-20 19:51 34.624945 -118.195328 260 5979ft 175kts
04-Sep-20 19:52 34.621115 -118.259402 261 7905ft 196kts
04-Sep-20 19:53 34.617325 -118.326674 262 9840ft 205kts
04-Sep-20 19:54 34.612840 -118.407657 263 9995ft 275kts
04-Sep-20 19:55 34.607384 -118.506802 264 9960ft 304kts
04-Sep-20 19:56 34.601540 -118.611002 264 9950ft 313kts
04-Sep-20 19:57 34.595167 -118.716785 263 9940ft 314kts
04-Sep-20 19:58 34.588789 -118.823672 265 9949ft 315kts
04-Sep-20 19:59 34.582515 -118.930136 265 9920ft 320kts
04-Sep-20 20:00 34.567967 -119.035338 243 10090ft 307kts
04-Sep-20 20:01 34.552507 -119.133223 259 9896ft 287kts
04-Sep-20 20:02 34.545575 -119.224362 261 9863ft 273kts
04-Sep-20 20:03 34.539676 -119.314472 261 8896ft 262kts
04-Sep-20 20:04 34.534079 -119.401732 262 8889ft 258kts
04-Sep-20 20:05 34.528460 -119.488847 262 8884ft 258kts
04-Sep-20 20:06 34.522800 -119.576009 262 8884ft 259kts
04-Sep-20 20:07 34.517377 -119.658664 261 8733ft 225kts
04-Sep-20 20:08 34.511087 -119.734846 248 7205ft 225kts
04-Sep-20 20:09 34.462452 -119.749389 156 5863ft 191kts
04-Sep-20 20:10 34.417030 -119.727485 156 5689ft 166kts
04-Sep-20 20:11 34.382678 -119.696893 111 5315ft 161kts
04-Sep-20 20:12 34.351995 -119.661980 156 4883ft 166kts
04-Sep-20 20:13 34.311428 -119.633749 107 3362ft 175kts
04-Sep-20 20:14 34.344613 -119.615649 317 2883ft 175kts
04-Sep-20 20:15 34.367590 -119.668972 295 1975ft 174kts
04-Sep-20 20:16 34.387845 -119.720361 295 1974ft 163kts
04-Sep-20 20:17 34.407226 -119.764597 304 1454ft 136kts
04-Sep-20 20:18 34.423870 -119.802428 291 845ft 127kts
04-Sep-20 20:19 34.427725 -119.841962 267 17ft 103kts
04-Sep-20 20:20 34.426687 -119.851510 141 12ft 0kts
04-Sep-20 20:21 34.426616 -119.851442 141 12ft 4kts
04-Sep-20 20:22 34.426526 -119.846166 89 13ft 22kts
04-Sep-20 20:23 34.426635 -119.841060 89 14ft 4kts
04-Sep-20 20:24 34.425350 -119.840898 164 14ft 17kts
04-Sep-20 20:25 34.422725 -119.836720 80 15ft 21kts
04-Sep-20 20:26 34.422829 -119.835703 78 15ft 0kts
04-Sep-20 20:27 34.422829 -119.835703 78 15ft 0kts
04-Sep-20 20:28 34.422829 -119.835703 78 15ft 0kts
04-Sep-20 20:29 34.422829 -119.835703 78 15ft 0kts
04-Sep-20 20:30 34.422829 -119.835703 78 15ft 0kts
04-Sep-20 20:31 34.422829 -119.835703 78 15ft 0kts
04-Sep-20 20:32 34.422829 -119.835703 78 15ft 0kts
04-Sep-20 20:33 34.422829 -119.835703 78 15ft 0kts

Navigation Log

Ident Type
Flight plan parsing failed, navigation log unavailable